sensor_id;sensor_type;location;lat;lon;timestamp;pressure;altitude;pressure_sealevel;temperature;humidity
22572;BME280;11452;53.368;14.658;2022-11-21T00:04:17;99953.20;;;4.09;74.45
22572;BME280;11452;53.368;14.658;2022-11-21T00:09:24;99947.51;;;4.08;74.43
22572;BME280;11452;53.368;14.658;2022-11-21T00:14:29;99941.17;;;4.12;74.44
22572;BME280;11452;53.368;14.658;2022-11-21T00:19:35;99935.77;;;4.05;74.10
22572;BME280;11452;53.368;14.658;2022-11-21T00:24:40;99923.60;;;4.01;74.06
22572;BME280;11452;53.368;14.658;2022-11-21T00:29:46;99918.31;;;4.01;74.08
22572;BME280;11452;53.368;14.658;2022-11-21T00:34:51;99901.45;;;3.94;74.03
22572;BME280;11452;53.368;14.658;2022-11-21T00:39:56;99894.78;;;3.95;73.81
22572;BME280;11452;53.368;14.658;2022-11-21T00:45:02;99884.55;;;3.88;73.99
22572;BME280;11452;53.368;14.658;2022-11-21T00:50:09;99890.23;;;3.89;73.71
22572;BME280;11452;53.368;14.658;2022-11-21T00:55:14;99877.40;;;3.79;73.79
22572;BME280;11452;53.368;14.658;2022-11-21T01:00:20;99873.09;;;3.77;73.68
22572;BME280;11452;53.368;14.658;2022-11-21T01:05:25;99874.02;;;3.76;73.84
22572;BME280;11452;53.368;14.658;2022-11-21T01:10:31;99872.66;;;3.88;74.13
22572;BME280;11452;53.368;14.658;2022-11-21T01:15:36;99870.27;;;3.81;73.94
22572;BME280;11452;53.368;14.658;2022-11-21T01:20:41;99864.13;;;3.81;73.84
22572;BME280;11452;53.368;14.658;2022-11-21T01:25:47;99863.66;;;3.81;74.01
22572;BME280;11452;53.368;14.658;2022-11-21T01:30:52;99866.36;;;3.90;73.85
22572;BME280;11452;53.368;14.658;2022-11-21T01:36:06;99856.45;;;3.95;73.83
22572;BME280;11452;53.368;14.658;2022-11-21T01:41:15;99854.45;;;3.90;73.46
22572;BME280;11452;53.368;14.658;2022-11-21T01:46:21;99853.08;;;3.92;73.53
22572;BME280;11452;53.368;14.658;2022-11-21T01:56:44;99847.66;;;3.95;73.44
22572;BME280;11452;53.368;14.658;2022-11-21T02:01:50;99855.19;;;3.94;73.41
22572;BME280;11452;53.368;14.658;2022-11-21T02:07:00;99857.96;;;3.91;73.58
22572;BME280;11452;53.368;14.658;2022-11-21T02:12:14;99859.21;;;3.72;72.82
22572;BME280;11452;53.368;14.658;2022-11-21T02:17:16;99856.20;;;3.71;73.11
22572;BME280;11452;53.368;14.658;2022-11-21T02:27:52;99866.70;;;3.82;73.27
22572;BME280;11452;53.368;14.658;2022-11-21T02:32:58;99871.50;;;3.73;72.74
22572;BME280;11452;53.368;14.658;2022-11-21T02:38:21;99870.19;;;3.63;72.93
22572;BME280;11452;53.368;14.658;2022-11-21T02:43:40;99862.33;;;3.51;72.09
22572;BME280;11452;53.368;14.658;2022-11-21T02:48:41;99860.33;;;3.56;73.38
22572;BME280;11452;53.368;14.658;2022-11-21T02:53:47;99851.81;;;3.60;73.22
22572;BME280;11452;53.368;14.658;2022-11-21T02:58:52;99854.39;;;3.71;73.09
22572;BME280;11452;53.368;14.658;2022-11-21T03:03:58;99854.61;;;3.67;72.75
22572;BME280;11452;53.368;14.658;2022-11-21T03:09:03;99854.34;;;3.63;72.51
22572;BME280;11452;53.368;14.658;2022-11-21T03:14:09;99847.67;;;3.64;72.70
22572;BME280;11452;53.368;14.658;2022-11-21T03:19:14;99852.41;;;3.56;72.34
22572;BME280;11452;53.368;14.658;2022-11-21T03:24:20;99852.09;;;3.64;72.75
22572;BME280;11452;53.368;14.658;2022-11-21T03:29:25;99851.14;;;3.55;72.41
22572;BME280;11452;53.368;14.658;2022-11-21T03:34:30;99848.04;;;3.55;72.42
22572;BME280;11452;53.368;14.658;2022-11-21T03:39:36;99847.61;;;3.66;72.41
22572;BME280;11452;53.368;14.658;2022-11-21T03:44:41;99846.00;;;3.72;72.27
22572;BME280;11452;53.368;14.658;2022-11-21T03:49:47;99844.55;;;3.75;71.95
22572;BME280;11452;53.368;14.658;2022-11-21T03:54:52;99850.83;;;3.72;72.04
22572;BME280;11452;53.368;14.658;2022-11-21T03:59:58;99847.87;;;3.70;71.82
22572;BME280;11452;53.368;14.658;2022-11-21T04:05:04;99853.34;;;3.75;71.84
22572;BME280;11452;53.368;14.658;2022-11-21T04:10:10;99857.66;;;3.68;71.43
22572;BME280;11452;53.368;14.658;2022-11-21T04:15:16;99857.03;;;3.71;71.71
22572;BME280;11452;53.368;14.658;2022-11-21T04:20:21;99868.74;;;3.66;71.53
22572;BME280;11452;53.368;14.658;2022-11-21T04:25:27;99870.03;;;3.56;71.49
22572;BME280;11452;53.368;14.658;2022-11-21T04:30:33;99871.84;;;3.65;71.32
22572;BME280;11452;53.368;14.658;2022-11-21T04:35:39;99868.01;;;3.52;71.24
22572;BME280;11452;53.368;14.658;2022-11-21T04:40:44;99860.08;;;3.52;71.31
22572;BME280;11452;53.368;14.658;2022-11-21T04:45:50;99864.44;;;3.63;71.22
22572;BME280;11452;53.368;14.658;2022-11-21T04:50:55;99862.14;;;3.66;71.21
22572;BME280;11452;53.368;14.658;2022-11-21T04:56:03;99844.78;;;3.70;71.13
22572;BME280;11452;53.368;14.658;2022-11-21T05:01:09;99844.62;;;3.73;70.89
22572;BME280;11452;53.368;14.658;2022-11-21T05:06:15;99854.67;;;3.65;70.31
22572;BME280;11452;53.368;14.658;2022-11-21T05:11:20;99851.02;;;3.58;70.56
22572;BME280;11452;53.368;14.658;2022-11-21T05:16:43;99854.24;;;3.54;70.71
22572;BME280;11452;53.368;14.658;2022-11-21T05:21:49;99849.77;;;3.56;70.72
22572;BME280;11452;53.368;14.658;2022-11-21T05:26:55;99848.04;;;3.55;70.61
22572;BME280;11452;53.368;14.658;2022-11-21T05:32:00;99852.46;;;3.55;70.65
22572;BME280;11452;53.368;14.658;2022-11-21T05:37:05;99842.11;;;3.60;70.65
22572;BME280;11452;53.368;14.658;2022-11-21T05:42:11;99844.94;;;3.45;70.55
22572;BME280;11452;53.368;14.658;2022-11-21T05:47:16;99840.12;;;3.55;70.61
22572;BME280;11452;53.368;14.658;2022-11-21T05:52:21;99845.80;;;3.46;70.56
22572;BME280;11452;53.368;14.658;2022-11-21T05:57:27;99844.48;;;3.56;70.64
22572;BME280;11452;53.368;14.658;2022-11-21T06:02:32;99851.76;;;3.61;70.45
22572;BME280;11452;53.368;14.658;2022-11-21T06:07:56;99844.75;;;3.60;70.41
22572;BME280;11452;53.368;14.658;2022-11-21T06:13:02;99846.02;;;3.62;70.25
22572;BME280;11452;53.368;14.658;2022-11-21T06:18:09;99851.30;;;3.62;70.29
22572;BME280;11452;53.368;14.658;2022-11-21T06:23:15;99846.32;;;3.44;69.62
22572;BME280;11452;53.368;14.658;2022-11-21T06:28:21;99852.25;;;3.39;70.11
22572;BME280;11452;53.368;14.658;2022-11-21T06:33:27;99855.92;;;3.25;69.76
22572;BME280;11452;53.368;14.658;2022-11-21T06:38:32;99858.16;;;3.24;69.61
22572;BME280;11452;53.368;14.658;2022-11-21T06:43:39;99856.78;;;3.25;70.08
22572;BME280;11452;53.368;14.658;2022-11-21T06:48:44;99856.14;;;3.30;70.03
22572;BME280;11452;53.368;14.658;2022-11-21T06:53:55;99867.23;;;3.17;69.80
22572;BME280;11452;53.368;14.658;2022-11-21T06:59:00;99874.64;;;3.19;70.05
22572;BME280;11452;53.368;14.658;2022-11-21T07:04:06;99866.42;;;3.26;70.22
22572;BME280;11452;53.368;14.658;2022-11-21T07:09:11;99876.69;;;3.34;70.23
22572;BME280;11452;53.368;14.658;2022-11-21T07:14:19;99883.81;;;3.42;70.04
22572;BME280;11452;53.368;14.658;2022-11-21T07:19:24;99887.31;;;3.42;69.93
22572;BME280;11452;53.368;14.658;2022-11-21T07:24:30;99891.72;;;3.32;69.80
22572;BME280;11452;53.368;14.658;2022-11-21T07:29:36;99892.31;;;3.38;69.58
22572;BME280;11452;53.368;14.658;2022-11-21T07:34:41;99899.08;;;3.45;69.94
22572;BME280;11452;53.368;14.658;2022-11-21T07:39:47;99905.56;;;3.48;69.57
22572;BME280;11452;53.368;14.658;2022-11-21T07:44:52;99913.66;;;3.44;69.20
22572;BME280;11452;53.368;14.658;2022-11-21T07:49:57;99909.58;;;3.47;69.20
22572;BME280;11452;53.368;14.658;2022-11-21T07:55:04;99907.47;;;3.45;69.31
22572;BME280;11452;53.368;14.658;2022-11-21T08:00:10;99911.09;;;3.53;69.30
22572;BME280;11452;53.368;14.658;2022-11-21T08:05:16;99904.48;;;3.53;69.45
22572;BME280;11452;53.368;14.658;2022-11-21T08:10:22;99909.92;;;3.50;68.80
22572;BME280;11452;53.368;14.658;2022-11-21T08:15:27;99902.00;;;3.50;69.30
22572;BME280;11452;53.368;14.658;2022-11-21T08:20:32;99902.69;;;3.65;69.42
22572;BME280;11452;53.368;14.658;2022-11-21T08:25:39;99908.65;;;3.70;69.12
22572;BME280;11452;53.368;14.658;2022-11-21T08:30:45;99902.10;;;3.78;69.24
22572;BME280;11452;53.368;14.658;2022-11-21T08:35:50;99912.67;;;3.78;68.93
22572;BME280;11452;53.368;14.658;2022-11-21T08:40:55;99927.45;;;3.72;68.82
22572;BME280;11452;53.368;14.658;2022-11-21T08:46:21;99921.39;;;3.80;69.00
22572;BME280;11452;53.368;14.658;2022-11-21T08:51:28;99914.27;;;3.82;68.74
22572;BME280;11452;53.368;14.658;2022-11-21T08:56:33;99915.58;;;3.93;68.68
22572;BME280;11452;53.368;14.658;2022-11-21T09:01:39;99922.59;;;3.94;68.36
22572;BME280;11452;53.368;14.658;2022-11-21T09:06:44;99920.87;;;3.93;68.22
22572;BME280;11452;53.368;14.658;2022-11-21T09:11:51;99929.20;;;3.94;68.24
22572;BME280;11452;53.368;14.658;2022-11-21T09:16:57;99938.05;;;3.93;67.99
22572;BME280;11452;53.368;14.658;2022-11-21T09:22:20;99944.72;;;3.91;68.03
22572;BME280;11452;53.368;14.658;2022-11-21T09:27:30;99939.89;;;3.91;68.15
22572;BME280;11452;53.368;14.658;2022-11-21T09:32:36;99947.36;;;3.71;67.67
22572;BME280;11452;53.368;14.658;2022-11-21T09:37:43;99950.22;;;3.87;67.49
22572;BME280;11452;53.368;14.658;2022-11-21T09:43:05;99951.97;;;3.76;67.16
22572;BME280;11452;53.368;14.658;2022-11-21T09:48:14;99952.12;;;3.83;67.50
22572;BME280;11452;53.368;14.658;2022-11-21T09:53:36;99962.81;;;3.70;66.93
22572;BME280;11452;53.368;14.658;2022-11-21T10:03:57;99961.72;;;3.86;67.06
22572;BME280;11452;53.368;14.658;2022-11-21T10:14:46;99956.97;;;4.14;67.26
22572;BME280;11452;53.368;14.658;2022-11-21T10:20:15;99960.80;;;3.97;65.88
22572;BME280;11452;53.368;14.658;2022-11-21T10:25:31;99953.75;;;4.07;67.11
22572;BME280;11452;53.368;14.658;2022-11-21T10:30:39;99962.33;;;4.12;66.58
22572;BME280;11452;53.368;14.658;2022-11-21T10:35:47;99964.59;;;4.22;66.59
22572;BME280;11452;53.368;14.658;2022-11-21T10:41:08;99956.45;;;4.16;66.38
22572;BME280;11452;53.368;14.658;2022-11-21T10:46:01;99955.27;;;4.23;66.37
22572;BME280;11452;53.368;14.658;2022-11-21T10:56:34;99961.81;;;4.35;65.79
22572;BME280;11452;53.368;14.658;2022-11-21T11:01:40;99953.34;;;4.37;66.01
22572;BME280;11452;53.368;14.658;2022-11-21T11:06:49;99948.39;;;4.39;66.23
22572;BME280;11452;53.368;14.658;2022-11-21T11:12:43;99949.75;;;4.48;65.87
22572;BME280;11452;53.368;14.658;2022-11-21T11:17:13;99962.65;;;4.45;65.44
22572;BME280;11452;53.368;14.658;2022-11-21T11:22:28;99968.63;;;4.40;65.65
22572;BME280;11452;53.368;14.658;2022-11-21T11:27:36;99977.48;;;4.39;65.20
22572;BME280;11452;53.368;14.658;2022-11-21T11:32:41;99979.72;;;4.28;64.28
22572;BME280;11452;53.368;14.658;2022-11-21T11:37:56;99984.80;;;4.02;65.11
22572;BME280;11452;53.368;14.658;2022-11-21T11:48:41;99972.32;;;4.06;65.40
22572;BME280;11452;53.368;14.658;2022-11-21T11:53:56;99967.27;;;4.10;65.25
22572;BME280;11452;53.368;14.658;2022-11-21T11:59:12;99968.44;;;4.25;66.09
22572;BME280;11452;53.368;14.658;2022-11-21T12:04:19;99960.36;;;4.38;65.62
22572;BME280;11452;53.368;14.658;2022-11-21T12:09:43;99968.96;;;4.23;64.59
22572;BME280;11452;53.368;14.658;2022-11-21T12:20:29;99980.50;;;4.00;65.08
22572;BME280;11452;53.368;14.658;2022-11-21T12:25:37;99984.14;;;3.75;65.05
22572;BME280;11452;53.368;14.658;2022-11-21T12:31:13;99993.62;;;3.91;64.71
22572;BME280;11452;53.368;14.658;2022-11-21T12:42:05;99989.76;;;3.56;65.52
22572;BME280;11452;53.368;14.658;2022-11-21T12:47:39;99991.25;;;3.63;65.53
22572;BME280;11452;53.368;14.658;2022-11-21T12:58:37;99993.78;;;3.21;64.48
22572;BME280;11452;53.368;14.658;2022-11-21T13:09:01;99994.93;;;3.26;65.55
22572;BME280;11452;53.368;14.658;2022-11-21T13:14:14;100000.37;;;3.21;66.18
22572;BME280;11452;53.368;14.658;2022-11-21T13:45:48;100005.95;;;3.25;64.82
22572;BME280;11452;53.368;14.658;2022-11-21T13:56:24;100003.44;;;3.10;66.03
22572;BME280;11452;53.368;14.658;2022-11-21T14:02:42;100005.66;;;3.21;66.60
22572;BME280;11452;53.368;14.658;2022-11-21T14:06:51;100002.52;;;3.11;66.14
22572;BME280;11452;53.368;14.658;2022-11-21T14:12:02;100001.09;;;3.15;66.21
22572;BME280;11452;53.368;14.658;2022-11-21T14:22:41;100017.59;;;3.20;65.91
22572;BME280;11452;53.368;14.658;2022-11-21T14:27:52;100019.63;;;3.13;66.37
22572;BME280;11452;53.368;14.658;2022-11-21T14:38:06;100015.81;;;3.20;66.49
22572;BME280;11452;53.368;14.658;2022-11-21T14:43:31;100020.43;;;3.15;66.15
22572;BME280;11452;53.368;14.658;2022-11-21T14:48:37;100020.48;;;3.13;66.47
22572;BME280;11452;53.368;14.658;2022-11-21T14:53:43;100012.77;;;3.19;66.39
22572;BME280;11452;53.368;14.658;2022-11-21T14:58:56;100016.86;;;3.28;66.55
22572;BME280;11452;53.368;14.658;2022-11-21T15:04:04;100001.88;;;3.28;66.40
22572;BME280;11452;53.368;14.658;2022-11-21T15:09:13;100001.98;;;3.25;66.39
22572;BME280;11452;53.368;14.658;2022-11-21T15:19:29;100001.42;;;3.29;66.43
22572;BME280;11452;53.368;14.658;2022-11-21T15:24:41;100000.39;;;3.09;65.28
22572;BME280;11452;53.368;14.658;2022-11-21T15:29:47;99999.00;;;2.99;66.35
22572;BME280;11452;53.368;14.658;2022-11-21T15:34:53;100004.02;;;2.95;66.04
22572;BME280;11452;53.368;14.658;2022-11-21T15:39:58;99995.50;;;2.99;66.44
22572;BME280;11452;53.368;14.658;2022-11-21T15:45:21;99993.20;;;3.01;66.02
22572;BME280;11452;53.368;14.658;2022-11-21T15:50:28;99989.05;;;2.96;66.07
22572;BME280;11452;53.368;14.658;2022-11-21T15:55:34;99983.16;;;2.99;66.38
22572;BME280;11452;53.368;14.658;2022-11-21T16:00:39;99979.67;;;2.99;66.33
22572;BME280;11452;53.368;14.658;2022-11-21T16:05:45;99981.84;;;2.99;66.49
22572;BME280;11452;53.368;14.658;2022-11-21T16:10:51;99975.95;;;3.04;66.56
22572;BME280;11452;53.368;14.658;2022-11-21T16:15:58;99981.34;;;3.13;66.54
22572;BME280;11452;53.368;14.658;2022-11-21T16:21:05;99978.66;;;3.15;66.44
22572;BME280;11452;53.368;14.658;2022-11-21T16:26:11;99978.20;;;3.15;66.30
22572;BME280;11452;53.368;14.658;2022-11-21T16:31:21;99967.55;;;3.17;66.42
22572;BME280;11452;53.368;14.658;2022-11-21T16:36:28;99969.13;;;3.10;66.31
22572;BME280;11452;53.368;14.658;2022-11-21T16:41:34;99970.02;;;2.98;65.68
22572;BME280;11452;53.368;14.658;2022-11-21T16:46:44;99976.36;;;2.94;66.19
22572;BME280;11452;53.368;14.658;2022-11-21T16:51:52;99972.41;;;2.94;66.31
22572;BME280;11452;53.368;14.658;2022-11-21T16:56:59;99986.73;;;3.10;65.50
22572;BME280;11452;53.368;14.658;2022-11-21T17:02:04;99984.08;;;2.98;65.89
22572;BME280;11452;53.368;14.658;2022-11-21T17:07:10;100001.19;;;2.88;65.68
22572;BME280;11452;53.368;14.658;2022-11-21T17:12:15;100001.14;;;2.78;65.92
22572;BME280;11452;53.368;14.658;2022-11-21T17:17:21;100007.78;;;2.76;65.65
22572;BME280;11452;53.368;14.658;2022-11-21T17:22:27;99998.05;;;2.54;65.51
22572;BME280;11452;53.368;14.658;2022-11-21T17:27:32;99993.55;;;2.44;65.68
22572;BME280;11452;53.368;14.658;2022-11-21T17:32:38;99999.33;;;2.42;65.69
22572;BME280;11452;53.368;14.658;2022-11-21T17:37:43;100001.64;;;2.39;66.11
22572;BME280;11452;53.368;14.658;2022-11-21T17:42:50;100009.95;;;2.40;65.56
22572;BME280;11452;53.368;14.658;2022-11-21T17:47:55;100009.80;;;2.32;65.62
22572;BME280;11452;53.368;14.658;2022-11-21T17:53:01;100005.97;;;2.16;65.72
22572;BME280;11452;53.368;14.658;2022-11-21T17:58:06;100017.33;;;2.18;65.90
22572;BME280;11452;53.368;14.658;2022-11-21T18:03:13;100015.55;;;2.18;66.03
22572;BME280;11452;53.368;14.658;2022-11-21T18:08:19;100022.82;;;2.23;66.15
22572;BME280;11452;53.368;14.658;2022-11-21T18:13:25;100028.20;;;2.33;66.20
22572;BME280;11452;53.368;14.658;2022-11-21T18:18:32;100028.35;;;2.29;65.77
22572;BME280;11452;53.368;14.658;2022-11-21T18:23:38;100022.91;;;2.22;66.21
22572;BME280;11452;53.368;14.658;2022-11-21T18:28:43;100016.13;;;2.26;66.24
22572;BME280;11452;53.368;14.658;2022-11-21T18:33:51;100016.80;;;2.33;66.42
22572;BME280;11452;53.368;14.658;2022-11-21T18:38:58;100013.95;;;2.39;66.48
22572;BME280;11452;53.368;14.658;2022-11-21T18:44:06;100012.51;;;2.42;66.39
22572;BME280;11452;53.368;14.658;2022-11-21T18:49:11;100016.90;;;2.30;66.16
22572;BME280;11452;53.368;14.658;2022-11-21T18:54:17;100005.39;;;2.32;66.67
22572;BME280;11452;53.368;14.658;2022-11-21T18:59:23;100004.94;;;2.33;66.36
22572;BME280;11452;53.368;14.658;2022-11-21T19:04:28;100004.33;;;2.38;66.71
22572;BME280;11452;53.368;14.658;2022-11-21T19:09:33;99990.09;;;2.42;66.65
22572;BME280;11452;53.368;14.658;2022-11-21T19:14:39;99989.38;;;2.50;66.80
22572;BME280;11452;53.368;14.658;2022-11-21T19:19:45;99980.77;;;2.45;66.75
22572;BME280;11452;53.368;14.658;2022-11-21T19:24:52;99989.38;;;2.38;66.41
22572;BME280;11452;53.368;14.658;2022-11-21T19:29:57;99986.08;;;2.32;66.44
22572;BME280;11452;53.368;14.658;2022-11-21T19:35:03;99974.01;;;2.38;66.72
22572;BME280;11452;53.368;14.658;2022-11-21T19:40:09;99975.20;;;2.16;66.07
22572;BME280;11452;53.368;14.658;2022-11-21T19:45:15;99972.42;;;2.21;66.60
22572;BME280;11452;53.368;14.658;2022-11-21T19:50:20;99966.36;;;2.30;66.53
22572;BME280;11452;53.368;14.658;2022-11-21T19:55:26;99969.50;;;2.28;66.66
22572;BME280;11452;53.368;14.658;2022-11-21T20:00:31;99969.14;;;2.26;66.52
22572;BME280;11452;53.368;14.658;2022-11-21T20:05:37;99964.91;;;2.22;66.54
22572;BME280;11452;53.368;14.658;2022-11-21T20:10:42;99974.25;;;2.19;66.84
22572;BME280;11452;53.368;14.658;2022-11-21T20:15:48;99963.92;;;2.24;66.82
22572;BME280;11452;53.368;14.658;2022-11-21T20:20:54;99959.81;;;2.29;66.95
22572;BME280;11452;53.368;14.658;2022-11-21T20:25:59;99967.67;;;2.30;67.00
22572;BME280;11452;53.368;14.658;2022-11-21T20:31:11;99955.86;;;2.29;66.79
22572;BME280;11452;53.368;14.658;2022-11-21T20:36:18;99963.20;;;2.21;66.64
22572;BME280;11452;53.368;14.658;2022-11-21T20:41:26;99949.86;;;2.12;66.71
22572;BME280;11452;53.368;14.658;2022-11-21T20:46:32;99943.30;;;1.99;66.63
22572;BME280;11452;53.368;14.658;2022-11-21T20:51:39;99949.66;;;2.05;67.14
22572;BME280;11452;53.368;14.658;2022-11-21T20:56:48;99954.66;;;2.01;66.90
22572;BME280;11452;53.368;14.658;2022-11-21T21:01:53;99938.19;;;1.94;66.57
22572;BME280;11452;53.368;14.658;2022-11-21T21:06:59;99933.56;;;1.88;66.87
22572;BME280;11452;53.368;14.658;2022-11-21T21:12:05;99911.68;;;1.86;66.93
22572;BME280;11452;53.368;14.658;2022-11-21T21:17:10;99907.57;;;1.65;67.20
22572;BME280;11452;53.368;14.658;2022-11-21T21:22:16;99900.32;;;1.59;67.31
22572;BME280;11452;53.368;14.658;2022-11-21T21:27:21;99898.45;;;1.62;67.40
22572;BME280;11452;53.368;14.658;2022-11-21T21:32:27;99884.77;;;1.51;67.03
22572;BME280;11452;53.368;14.658;2022-11-21T21:37:32;99881.22;;;1.52;67.63
22572;BME280;11452;53.368;14.658;2022-11-21T21:42:37;99871.25;;;1.35;67.63
22572;BME280;11452;53.368;14.658;2022-11-21T21:47:43;99887.14;;;1.32;68.03
22572;BME280;11452;53.368;14.658;2022-11-21T21:52:49;99897.83;;;1.54;68.55
22572;BME280;11452;53.368;14.658;2022-11-21T21:57:55;99908.19;;;1.32;67.57
22572;BME280;11452;53.368;14.658;2022-11-21T22:03:01;99919.48;;;1.36;68.28
22572;BME280;11452;53.368;14.658;2022-11-21T22:08:06;99925.97;;;1.26;68.36
22572;BME280;11452;53.368;14.658;2022-11-21T22:13:12;99945.66;;;1.27;68.78
22572;BME280;11452;53.368;14.658;2022-11-21T22:18:17;99946.45;;;1.44;69.02
22572;BME280;11452;53.368;14.658;2022-11-21T22:23:23;99942.33;;;1.49;68.82
22572;BME280;11452;53.368;14.658;2022-11-21T22:28:29;99959.92;;;1.48;69.29
22572;BME280;11452;53.368;14.658;2022-11-21T22:33:36;99962.51;;;1.63;69.40
22572;BME280;11452;53.368;14.658;2022-11-21T22:38:43;99965.59;;;1.62;69.23
22572;BME280;11452;53.368;14.658;2022-11-21T22:43:50;99971.87;;;1.58;68.81
22572;BME280;11452;53.368;14.658;2022-11-21T22:48:56;99977.54;;;1.59;68.89
22572;BME280;11452;53.368;14.658;2022-11-21T22:54:02;99988.70;;;1.39;68.91
22572;BME280;11452;53.368;14.658;2022-11-21T22:59:10;99985.76;;;1.49;69.23
22572;BME280;11452;53.368;14.658;2022-11-21T23:04:15;99996.70;;;1.50;69.19
22572;BME280;11452;53.368;14.658;2022-11-21T23:09:21;99993.52;;;1.53;69.37
22572;BME280;11452;53.368;14.658;2022-11-21T23:14:26;99983.13;;;1.63;69.62
22572;BME280;11452;53.368;14.658;2022-11-21T23:19:32;99982.35;;;1.73;69.53
22572;BME280;11452;53.368;14.658;2022-11-21T23:24:39;99983.66;;;1.60;69.17
22572;BME280;11452;53.368;14.658;2022-11-21T23:29:44;99989.62;;;1.52;68.92
22572;BME280;11452;53.368;14.658;2022-11-21T23:34:50;100000.64;;;1.50;69.58
22572;BME280;11452;53.368;14.658;2022-11-21T23:39:55;99996.56;;;1.54;69.06
22572;BME280;11452;53.368;14.658;2022-11-21T23:45:00;99991.48;;;1.63;69.70
22572;BME280;11452;53.368;14.658;2022-11-21T23:50:07;99976.63;;;1.60;69.24
22572;BME280;11452;53.368;14.658;2022-11-21T23:55:13;99978.45;;;1.71;69.75
